Time,TemperatureF,DewpointF,PressureIn,WindDirection,WindDirectionDegrees,WindSpeedMPH,WindSpeedGustMPH,Humidity,HourlyPrecipIn,Conditions,Clouds,dailyrainin,SoftwareType,DateUTC
2013-10-03 00:11:00,46.2,38.0,25.52,NNE,33,4.0,5.0,74,0.00,,,0.00,weatherlink.com 1.10,2013-10-03 06:11:00,
2013-10-03 00:26:00,47.2,39.0,25.52,North,4,5.0,6.0,74,0.00,,,0.00,weatherlink.com 1.10,2013-10-03 06:26:00,
2013-10-03 00:41:00,48.4,39.0,25.51,NNE,27,5.0,8.0,71,0.00,,,0.00,weatherlink.com 1.10,2013-10-03 06:41:00,
2013-10-03 00:56:00,49.0,40.0,25.52,NNE,25,4.0,7.0,70,0.00,,,0.00,weatherlink.com 1.10,2013-10-03 06:56:00,
2013-10-03 01:11:00,49.3,39.0,25.52,NNE,18,6.0,8.0,69,0.00,,,0.00,weatherlink.com 1.10,2013-10-03 07:11:00,
2013-10-03 01:26:00,49.0,39.0,25.52,NNW,347,7.0,8.0,69,0.00,,,0.00,weatherlink.com 1.10,2013-10-03 07:26:00,
2013-10-03 01:41:00,48.9,39.0,25.51,North,3,3.0,6.0,68,0.00,,,0.00,weatherlink.com 1.10,2013-10-03 07:41:00,
2013-10-03 01:56:00,48.9,39.0,25.51,NNW,339,5.0,6.0,70,0.00,,,0.00,weatherlink.com 1.10,2013-10-03 07:56:00,
2013-10-03 03:27:00,48.5,39.0,25.50,NNW,347,5.0,7.0,71,0.00,,,0.00,weatherlink.com 1.10,2013-10-03 09:27:00,
2013-10-03 03:41:00,48.6,39.0,25.50,NNW,338,4.0,8.0,70,0.00,,,0.00,weatherlink.com 1.10,2013-10-03 09:41:00,
2013-10-03 03:56:00,48.4,39.0,25.49,North,349,4.0,8.0,71,0.00,,,0.00,weatherlink.com 1.10,2013-10-03 09:56:00,
2013-10-03 04:26:00,48.0,40.0,25.50,North,9,3.0,6.0,74,0.00,,,0.00,weatherlink.com 1.10,2013-10-03 10:26:00,
2013-10-03 05:41:00,48.3,40.0,25.50,NW,323,13.0,15.0,74,0.00,,,0.00,weatherlink.com 1.10,2013-10-03 11:41:00,
2013-10-03 06:27:00,47.8,41.0,25.50,NNW,340,8.0,12.0,76,0.00,,,0.00,weatherlink.com 1.10,2013-10-03 12:27:00,
2013-10-03 06:42:00,47.3,40.0,25.49,North,349,4.0,8.0,77,0.00,,,0.00,weatherlink.com 1.10,2013-10-03 12:42:00,
2013-10-03 06:57:00,46.7,41.0,25.48,NE,36,5.0,7.0,79,0.00,,,0.00,weatherlink.com 1.10,2013-10-03 12:57:00,
2013-10-03 07:12:00,46.7,41.0,25.49,North,11,6.0,8.0,80,0.00,,,0.00,weatherlink.com 1.10,2013-10-03 13:12:00,
2013-10-03 07:27:00,46.8,41.0,25.49,NNW,343,4.0,11.0,80,0.00,,,0.00,weatherlink.com 1.10,2013-10-03 13:27:00,
2013-10-03 07:42:00,47.2,41.0,25.49,North,352,8.0,11.0,79,0.00,,,0.00,weatherlink.com 1.10,2013-10-03 13:42:00,
2013-10-03 07:57:00,47.3,41.0,25.50,North,8,5.0,14.0,80,0.00,,,0.00,weatherlink.com 1.10,2013-10-03 13:57:00,
2013-10-03 08:12:00,47.3,41.0,25.50,NNE,29,9.0,16.0,80,0.00,,,0.00,weatherlink.com 1.10,2013-10-03 14:12:00,
2013-10-03 08:27:00,47.4,42.0,25.50,North,7,11.0,15.0,80,0.00,,,0.00,weatherlink.com 1.10,2013-10-03 14:27:00,
2013-10-03 08:42:00,47.4,42.0,25.50,NNE,15,9.0,14.0,80,0.00,,,0.00,weatherlink.com 1.10,2013-10-03 14:42:00,
2013-10-03 08:57:00,47.5,41.0,25.50,NNE,27,10.0,17.0,79,0.00,,,0.00,weatherlink.com 1.10,2013-10-03 14:57:00,
2013-10-03 09:12:00,47.3,42.0,25.50,North,9,12.0,16.0,81,0.00,,,0.00,weatherlink.com 1.10,2013-10-03 15:12:00,
2013-10-03 09:27:00,48.0,42.0,25.50,ENE,58,10.0,18.0,80,0.00,,,0.00,weatherlink.com 1.10,2013-10-03 15:27:00,
2013-10-03 09:42:00,47.8,42.0,25.50,NNE,24,13.0,16.0,81,0.00,,,0.00,weatherlink.com 1.10,2013-10-03 15:42:00,
2013-10-03 09:57:00,48.3,43.0,25.50,NE,42,13.0,16.0,81,0.00,,,0.00,weatherlink.com 1.10,2013-10-03 15:57:00,
2013-10-03 10:12:00,48.9,43.0,25.49,NE,49,10.0,18.0,79,0.00,,,0.00,weatherlink.com 1.10,2013-10-03 16:12:00,
2013-10-03 10:27:00,50.3,44.0,25.50,NE,56,9.0,15.0,78,0.00,,,0.00,weatherlink.com 1.10,2013-10-03 16:27:00,
2013-10-03 10:42:00,50.8,44.0,25.50,NNE,13,13.0,15.0,77,0.00,,,0.00,weatherlink.com 1.10,2013-10-03 16:42:00,
2013-10-03 10:57:00,51.5,44.0,25.49,NE,39,13.0,18.0,76,0.00,,,0.00,weatherlink.com 1.10,2013-10-03 16:57:00,
2013-10-03 11:12:00,51.2,44.0,25.49,ENE,66,11.0,19.0,77,0.00,,,0.00,weatherlink.com 1.10,2013-10-03 17:12:00,
2013-10-03 11:27:00,51.1,44.0,25.48,ENE,57,17.0,17.0,78,0.00,,,0.00,weatherlink.com 1.10,2013-10-03 17:27:00,
2013-10-03 11:42:00,51.5,45.0,25.48,NE,43,13.0,16.0,77,0.00,,,0.00,weatherlink.com 1.10,2013-10-03 17:42:00,
2013-10-03 11:57:00,52.0,45.0,25.48,NE,56,14.0,16.0,77,0.00,,,0.00,weatherlink.com 1.10,2013-10-03 17:57:00,
2013-10-03 12:12:00,51.3,45.0,25.48,ENE,63,12.0,17.0,79,0.00,,,0.00,weatherlink.com 1.10,2013-10-03 18:12:00,
2013-10-03 12:27:00,50.9,45.0,25.47,ENE,68,7.0,-999.0,80,-99.99,,,0.00,weatherlink.com 1.10,2013-10-03 18:27:00,
2013-10-03 12:42:00,50.9,45.0,25.48,NE,49,12.0,15.0,80,0.00,,,0.00,weatherlink.com 1.10,2013-10-03 18:42:00,
2013-10-03 12:57:00,50.3,45.0,25.48,ENE,59,10.0,16.0,82,0.00,,,0.00,weatherlink.com 1.10,2013-10-03 18:57:00,
2013-10-03 13:12:00,50.1,45.0,25.47,ENE,75,11.0,16.0,83,0.00,,,0.00,weatherlink.com 1.10,2013-10-03 19:12:00,
2013-10-03 13:27:00,49.9,45.0,25.47,NE,56,16.0,18.0,83,0.00,,,0.00,weatherlink.com 1.10,2013-10-03 19:27:00,
2013-10-03 13:42:00,49.5,45.0,25.47,ENE,70,13.0,15.0,85,0.00,,,0.00,weatherlink.com 1.10,2013-10-03 19:42:00,
2013-10-03 13:58:00,49.3,45.0,25.47,ENE,62,17.0,17.0,85,0.00,,,0.00,weatherlink.com 1.10,2013-10-03 19:58:00,
2013-10-03 14:13:00,49.2,45.0,25.46,ENE,65,12.0,18.0,86,0.00,,,0.00,weatherlink.com 1.10,2013-10-03 20:13:00,
2013-10-03 14:28:00,49.1,45.0,25.46,ENE,72,14.0,18.0,87,0.00,,,0.00,weatherlink.com 1.10,2013-10-03 20:28:00,
2013-10-03 14:43:00,49.2,46.0,25.46,ENE,68,11.0,17.0,87,0.00,,,0.00,weatherlink.com 1.10,2013-10-03 20:43:00,
2013-10-03 14:58:00,49.5,46.0,25.46,ENE,66,15.0,19.0,87,0.00,,,0.00,weatherlink.com 1.10,2013-10-03 20:58:00,
2013-10-03 15:13:00,49.4,46.0,25.45,ENE,67,17.0,19.0,88,0.00,,,0.00,weatherlink.com 1.10,2013-10-03 21:13:00,
2013-10-03 15:28:00,49.1,46.0,25.45,NE,53,14.0,18.0,89,0.00,,,0.00,weatherlink.com 1.10,2013-10-03 21:28:00,
2013-10-03 15:43:00,48.9,46.0,25.45,ENE,67,20.0,20.0,90,0.00,,,0.00,weatherlink.com 1.10,2013-10-03 21:43:00,
2013-10-03 15:58:00,48.9,46.0,25.45,ENE,69,15.0,18.0,90,0.00,,,0.00,weatherlink.com 1.10,2013-10-03 21:58:00,
2013-10-03 16:13:00,49.3,46.0,25.45,ENE,68,15.0,17.0,89,0.00,,,0.00,weatherlink.com 1.10,2013-10-03 22:13:00,
2013-10-03 16:28:00,49.1,46.0,25.44,ENE,58,14.0,21.0,89,0.00,,,0.00,weatherlink.com 1.10,2013-10-03 22:28:00,
2013-10-03 16:43:00,49.1,46.0,25.45,NE,52,12.0,19.0,89,0.00,,,0.00,weatherlink.com 1.10,2013-10-03 22:43:00,
2013-10-03 16:59:00,48.7,46.0,25.45,ENE,67,14.0,19.0,90,0.00,,,0.00,weatherlink.com 1.10,2013-10-03 22:59:00,
2013-10-03 17:13:00,48.3,46.0,25.45,ENE,65,11.0,19.0,92,0.00,,,0.00,weatherlink.com 1.10,2013-10-03 23:13:00,
2013-10-03 17:28:00,48.1,46.0,25.46,ENE,70,16.0,18.0,93,0.00,,,0.00,weatherlink.com 1.10,2013-10-03 23:28:00,